sensor_id;sensor_type;location;lat;lon;timestamp;P1;durP1;ratioP1;P2;durP2;ratioP2
15990;SDS011;8100;50.994;4.538;2023-05-07T00:01:38;4.53;;;3.60;;
15990;SDS011;8100;50.994;4.538;2023-05-07T00:04:07;7.25;;;3.50;;
15990;SDS011;8100;50.994;4.538;2023-05-07T00:06:34;4.60;;;3.50;;
15990;SDS011;8100;50.994;4.538;2023-05-07T00:09:01;8.30;;;4.10;;
15990;SDS011;8100;50.994;4.538;2023-05-07T00:11:29;6.10;;;3.78;;
15990;SDS011;8100;50.994;4.538;2023-05-07T00:13:56;6.00;;;4.05;;
15990;SDS011;8100;50.994;4.538;2023-05-07T00:16:23;7.50;;;4.50;;
15990;SDS011;8100;50.994;4.538;2023-05-07T00:18:51;7.15;;;4.10;;
15990;SDS011;8100;50.994;4.538;2023-05-07T00:21:20;7.22;;;4.53;;
15990;SDS011;8100;50.994;4.538;2023-05-07T00:23:47;5.30;;;3.92;;
15990;SDS011;8100;50.994;4.538;2023-05-07T00:26:14;7.38;;;4.10;;
15990;SDS011;8100;50.994;4.538;2023-05-07T00:28:41;7.15;;;4.28;;
15990;SDS011;8100;50.994;4.538;2023-05-07T00:31:08;12.07;;;5.20;;
15990;SDS011;8100;50.994;4.538;2023-05-07T00:33:35;7.93;;;4.97;;
15990;SDS011;8100;50.994;4.538;2023-05-07T00:36:02;8.75;;;5.57;;
15990;SDS011;8100;50.994;4.538;2023-05-07T00:38:31;7.72;;;4.97;;
15990;SDS011;8100;50.994;4.538;2023-05-07T00:40:58;5.97;;;4.78;;
15990;SDS011;8100;50.994;4.538;2023-05-07T00:43:25;7.30;;;5.30;;
15990;SDS011;8100;50.994;4.538;2023-05-07T00:45:52;5.75;;;5.15;;
15990;SDS011;8100;50.994;4.538;2023-05-07T00:48:19;7.00;;;5.47;;
15990;SDS011;8100;50.994;4.538;2023-05-07T00:50:49;9.07;;;5.32;;
15990;SDS011;8100;50.994;4.538;2023-05-07T00:53:16;7.88;;;5.78;;
15990;SDS011;8100;50.994;4.538;2023-05-07T00:55:45;7.65;;;5.15;;
15990;SDS011;8100;50.994;4.538;2023-05-07T00:58:12;9.85;;;5.72;;
15990;SDS011;8100;50.994;4.538;2023-05-07T01:00:39;9.75;;;5.57;;
15990;SDS011;8100;50.994;4.538;2023-05-07T01:03:07;10.82;;;4.78;;
15990;SDS011;8100;50.994;4.538;2023-05-07T01:05:34;5.95;;;4.55;;
15990;SDS011;8100;50.994;4.538;2023-05-07T01:08:01;6.30;;;4.65;;
15990;SDS011;8100;50.994;4.538;2023-05-07T01:10:30;6.97;;;4.07;;
15990;SDS011;8100;50.994;4.538;2023-05-07T01:12:59;4.07;;;3.45;;
15990;SDS011;8100;50.994;4.538;2023-05-07T01:15:26;6.55;;;3.60;;
15990;SDS011;8100;50.994;4.538;2023-05-07T01:17:53;4.85;;;3.20;;
15990;SDS011;8100;50.994;4.538;2023-05-07T01:20:22;5.15;;;3.45;;
15990;SDS011;8100;50.994;4.538;2023-05-07T01:22:50;4.97;;;3.50;;
15990;SDS011;8100;50.994;4.538;2023-05-07T01:25:18;5.50;;;3.40;;
15990;SDS011;8100;50.994;4.538;2023-05-07T01:27:45;6.65;;;3.50;;
15990;SDS011;8100;50.994;4.538;2023-05-07T01:30:12;5.38;;;3.30;;
15990;SDS011;8100;50.994;4.538;2023-05-07T01:32:40;5.53;;;3.22;;
15990;SDS011;8100;50.994;4.538;2023-05-07T01:35:11;4.57;;;3.50;;
15990;SDS011;8100;50.994;4.538;2023-05-07T01:37:40;4.50;;;3.72;;
15990;SDS011;8100;50.994;4.538;2023-05-07T01:40:09;7.03;;;3.70;;
15990;SDS011;8100;50.994;4.538;2023-05-07T01:42:36;4.97;;;3.55;;
15990;SDS011;8100;50.994;4.538;2023-05-07T01:45:04;4.30;;;3.65;;
15990;SDS011;8100;50.994;4.538;2023-05-07T01:47:32;6.63;;;3.90;;
15990;SDS011;8100;50.994;4.538;2023-05-07T01:49:59;6.32;;;4.03;;
15990;SDS011;8100;50.994;4.538;2023-05-07T01:52:27;5.97;;;3.78;;
15990;SDS011;8100;50.994;4.538;2023-05-07T01:54:55;4.85;;;3.83;;
15990;SDS011;8100;50.994;4.538;2023-05-07T01:57:23;5.05;;;3.60;;
15990;SDS011;8100;50.994;4.538;2023-05-07T01:59:50;5.97;;;4.15;;
15990;SDS011;8100;50.994;4.538;2023-05-07T02:02:17;5.13;;;3.80;;
15990;SDS011;8100;50.994;4.538;2023-05-07T02:04:44;7.03;;;4.30;;
15990;SDS011;8100;50.994;4.538;2023-05-07T02:07:11;5.03;;;3.60;;
15990;SDS011;8100;50.994;4.538;2023-05-07T02:09:38;8.20;;;4.40;;
15990;SDS011;8100;50.994;4.538;2023-05-07T02:12:05;4.82;;;4.05;;
15990;SDS011;8100;50.994;4.538;2023-05-07T02:14:33;6.80;;;4.25;;
15990;SDS011;8100;50.994;4.538;2023-05-07T02:17:00;6.90;;;4.40;;
15990;SDS011;8100;50.994;4.538;2023-05-07T02:19:27;5.50;;;3.83;;
15990;SDS011;8100;50.994;4.538;2023-05-07T02:21:54;5.78;;;3.88;;
15990;SDS011;8100;50.994;4.538;2023-05-07T02:24:21;7.38;;;3.70;;
15990;SDS011;8100;50.994;4.538;2023-05-07T02:26:48;5.30;;;3.97;;
15990;SDS011;8100;50.994;4.538;2023-05-07T02:29:15;4.70;;;3.85;;
15990;SDS011;8100;50.994;4.538;2023-05-07T02:31:43;5.82;;;3.90;;
15990;SDS011;8100;50.994;4.538;2023-05-07T02:34:10;8.73;;;4.07;;
15990;SDS011;8100;50.994;4.538;2023-05-07T02:36:37;5.18;;;3.92;;
15990;SDS011;8100;50.994;4.538;2023-05-07T02:39:05;5.88;;;3.90;;
15990;SDS011;8100;50.994;4.538;2023-05-07T02:41:32;7.38;;;4.07;;
15990;SDS011;8100;50.994;4.538;2023-05-07T02:43:59;5.10;;;3.90;;
15990;SDS011;8100;50.994;4.538;2023-05-07T02:46:26;7.05;;;4.18;;
15990;SDS011;8100;50.994;4.538;2023-05-07T02:48:54;5.47;;;3.90;;
15990;SDS011;8100;50.994;4.538;2023-05-07T02:51:21;6.90;;;4.00;;
15990;SDS011;8100;50.994;4.538;2023-05-07T02:53:49;4.65;;;3.88;;
15990;SDS011;8100;50.994;4.538;2023-05-07T02:56:16;5.13;;;3.92;;
15990;SDS011;8100;50.994;4.538;2023-05-07T02:58:43;5.75;;;4.00;;
15990;SDS011;8100;50.994;4.538;2023-05-07T03:01:10;6.53;;;4.22;;
15990;SDS011;8100;50.994;4.538;2023-05-07T03:03:38;5.47;;;3.97;;
15990;SDS011;8100;50.994;4.538;2023-05-07T03:06:07;5.15;;;4.05;;
15990;SDS011;8100;50.994;4.538;2023-05-07T03:08:34;6.90;;;4.28;;
15990;SDS011;8100;50.994;4.538;2023-05-07T03:11:01;4.60;;;4.00;;
15990;SDS011;8100;50.994;4.538;2023-05-07T03:13:28;5.60;;;3.97;;
15990;SDS011;8100;50.994;4.538;2023-05-07T03:15:55;6.55;;;4.20;;
15990;SDS011;8100;50.994;4.538;2023-05-07T03:18:22;5.47;;;4.00;;
15990;SDS011;8100;50.994;4.538;2023-05-07T03:20:49;5.20;;;4.20;;
15990;SDS011;8100;50.994;4.538;2023-05-07T03:23:18;6.05;;;4.50;;
15990;SDS011;8100;50.994;4.538;2023-05-07T03:25:45;5.50;;;4.38;;
15990;SDS011;8100;50.994;4.538;2023-05-07T03:28:12;7.20;;;4.10;;
15990;SDS011;8100;50.994;4.538;2023-05-07T03:30:39;6.00;;;4.30;;
15990;SDS011;8100;50.994;4.538;2023-05-07T03:33:05;5.60;;;3.70;;
15990;SDS011;8100;50.994;4.538;2023-05-07T03:35:33;4.68;;;3.75;;
15990;SDS011;8100;50.994;4.538;2023-05-07T03:38:00;4.95;;;4.07;;
15990;SDS011;8100;50.994;4.538;2023-05-07T03:40:28;5.18;;;4.30;;
15990;SDS011;8100;50.994;4.538;2023-05-07T03:42:55;6.30;;;4.25;;
15990;SDS011;8100;50.994;4.538;2023-05-07T03:45:22;5.03;;;3.42;;
15990;SDS011;8100;50.994;4.538;2023-05-07T03:47:49;5.20;;;3.83;;
15990;SDS011;8100;50.994;4.538;2023-05-07T03:50:16;6.78;;;4.35;;
15990;SDS011;8100;50.994;4.538;2023-05-07T03:52:43;4.80;;;4.25;;
15990;SDS011;8100;50.994;4.538;2023-05-07T03:55:11;5.28;;;4.13;;
15990;SDS011;8100;50.994;4.538;2023-05-07T03:57:39;6.22;;;4.03;;
15990;SDS011;8100;50.994;4.538;2023-05-07T04:00:06;4.72;;;3.80;;
15990;SDS011;8100;50.994;4.538;2023-05-07T04:02:34;5.40;;;4.20;;
15990;SDS011;8100;50.994;4.538;2023-05-07T04:05:01;7.05;;;4.20;;
15990;SDS011;8100;50.994;4.538;2023-05-07T04:07:28;5.13;;;4.10;;
15990;SDS011;8100;50.994;4.538;2023-05-07T04:09:55;7.85;;;4.53;;
15990;SDS011;8100;50.994;4.538;2023-05-07T04:12:22;6.55;;;4.18;;
15990;SDS011;8100;50.994;4.538;2023-05-07T04:14:50;5.55;;;3.90;;
15990;SDS011;8100;50.994;4.538;2023-05-07T04:17:17;5.95;;;4.22;;
15990;SDS011;8100;50.994;4.538;2023-05-07T04:19:44;5.63;;;4.03;;
15990;SDS011;8100;50.994;4.538;2023-05-07T04:22:11;6.65;;;4.40;;
15990;SDS011;8100;50.994;4.538;2023-05-07T04:24:38;6.18;;;4.22;;
15990;SDS011;8100;50.994;4.538;2023-05-07T04:27:05;5.38;;;3.90;;
15990;SDS011;8100;50.994;4.538;2023-05-07T04:29:32;6.95;;;4.30;;
15990;SDS011;8100;50.994;4.538;2023-05-07T04:32:01;5.95;;;4.45;;
15990;SDS011;8100;50.994;4.538;2023-05-07T04:34:28;6.63;;;4.63;;
15990;SDS011;8100;50.994;4.538;2023-05-07T04:36:57;5.68;;;4.70;;
15990;SDS011;8100;50.994;4.538;2023-05-07T04:39:25;8.50;;;5.03;;
15990;SDS011;8100;50.994;4.538;2023-05-07T04:41:52;5.97;;;4.70;;
15990;SDS011;8100;50.994;4.538;2023-05-07T04:44:19;6.63;;;4.43;;
15990;SDS011;8100;50.994;4.538;2023-05-07T04:46:45;7.57;;;4.40;;
15990;SDS011;8100;50.994;4.538;2023-05-07T04:49:14;5.35;;;4.28;;
15990;SDS011;8100;50.994;4.538;2023-05-07T04:51:41;5.22;;;4.63;;
15990;SDS011;8100;50.994;4.538;2023-05-07T04:54:08;5.68;;;4.72;;
15990;SDS011;8100;50.994;4.538;2023-05-07T04:56:35;7.28;;;4.78;;
15990;SDS011;8100;50.994;4.538;2023-05-07T04:59:02;6.93;;;5.00;;
15990;SDS011;8100;50.994;4.538;2023-05-07T05:01:29;6.07;;;4.50;;
15990;SDS011;8100;50.994;4.538;2023-05-07T05:03:56;5.90;;;4.47;;
15990;SDS011;8100;50.994;4.538;2023-05-07T05:06:26;5.72;;;4.65;;
15990;SDS011;8100;50.994;4.538;2023-05-07T05:08:53;6.15;;;4.28;;
15990;SDS011;8100;50.994;4.538;2023-05-07T05:11:20;5.72;;;4.72;;
15990;SDS011;8100;50.994;4.538;2023-05-07T05:13:47;5.60;;;4.80;;
15990;SDS011;8100;50.994;4.538;2023-05-07T05:16:14;5.93;;;4.97;;
15990;SDS011;8100;50.994;4.538;2023-05-07T05:18:41;6.07;;;4.57;;
15990;SDS011;8100;50.994;4.538;2023-05-07T05:21:08;4.95;;;4.45;;
15990;SDS011;8100;50.994;4.538;2023-05-07T05:23:36;6.47;;;5.10;;
15990;SDS011;8100;50.994;4.538;2023-05-07T05:26:04;8.45;;;4.93;;
15990;SDS011;8100;50.994;4.538;2023-05-07T05:28:31;8.07;;;4.75;;
15990;SDS011;8100;50.994;4.538;2023-05-07T05:30:57;5.95;;;5.22;;
15990;SDS011;8100;50.994;4.538;2023-05-07T05:33:24;7.70;;;5.30;;
15990;SDS011;8100;50.994;4.538;2023-05-07T05:35:52;8.18;;;5.47;;
15990;SDS011;8100;50.994;4.538;2023-05-07T05:38:20;7.05;;;5.38;;
15990;SDS011;8100;50.994;4.538;2023-05-07T05:40:48;5.88;;;5.15;;
15990;SDS011;8100;50.994;4.538;2023-05-07T05:43:15;5.97;;;5.35;;
15990;SDS011;8100;50.994;4.538;2023-05-07T05:45:42;7.00;;;5.72;;
15990;SDS011;8100;50.994;4.538;2023-05-07T05:48:09;5.88;;;5.28;;
15990;SDS011;8100;50.994;4.538;2023-05-07T05:50:36;8.50;;;5.65;;
15990;SDS011;8100;50.994;4.538;2023-05-07T05:53:03;8.48;;;5.65;;
15990;SDS011;8100;50.994;4.538;2023-05-07T05:55:30;9.10;;;5.60;;
15990;SDS011;8100;50.994;4.538;2023-05-07T05:57:59;8.25;;;6.50;;
15990;SDS011;8100;50.994;4.538;2023-05-07T06:00:26;7.15;;;5.80;;
15990;SDS011;8100;50.994;4.538;2023-05-07T06:02:54;7.38;;;5.65;;
15990;SDS011;8100;50.994;4.538;2023-05-07T06:05:21;8.52;;;5.70;;
15990;SDS011;8100;50.994;4.538;2023-05-07T06:07:48;6.32;;;5.53;;
15990;SDS011;8100;50.994;4.538;2023-05-07T06:10:15;8.98;;;5.97;;
15990;SDS011;8100;50.994;4.538;2023-05-07T06:12:42;6.97;;;5.93;;
15990;SDS011;8100;50.994;4.538;2023-05-07T06:15:10;7.35;;;5.93;;
15990;SDS011;8100;50.994;4.538;2023-05-07T06:17:37;6.95;;;5.45;;
15990;SDS011;8100;50.994;4.538;2023-05-07T06:20:05;7.57;;;5.88;;
15990;SDS011;8100;50.994;4.538;2023-05-07T06:22:33;7.35;;;5.85;;
15990;SDS011;8100;50.994;4.538;2023-05-07T06:25:00;7.47;;;6.00;;
15990;SDS011;8100;50.994;4.538;2023-05-07T06:27:27;9.27;;;6.22;;
15990;SDS011;8100;50.994;4.538;2023-05-07T06:29:54;7.53;;;5.93;;
15990;SDS011;8100;50.994;4.538;2023-05-07T06:32:22;7.55;;;5.90;;
15990;SDS011;8100;50.994;4.538;2023-05-07T06:34:49;8.80;;;6.13;;
15990;SDS011;8100;50.994;4.538;2023-05-07T06:37:16;8.63;;;6.55;;
15990;SDS011;8100;50.994;4.538;2023-05-07T06:39:43;7.90;;;6.20;;
15990;SDS011;8100;50.994;4.538;2023-05-07T06:42:10;9.23;;;6.43;;
15990;SDS011;8100;50.994;4.538;2023-05-07T06:44:37;7.82;;;6.60;;
15990;SDS011;8100;50.994;4.538;2023-05-07T06:47:04;9.30;;;6.70;;
15990;SDS011;8100;50.994;4.538;2023-05-07T06:49:32;7.90;;;6.32;;
15990;SDS011;8100;50.994;4.538;2023-05-07T06:51:59;8.98;;;6.20;;
15990;SDS011;8100;50.994;4.538;2023-05-07T06:54:26;8.63;;;6.15;;
15990;SDS011;8100;50.994;4.538;2023-05-07T06:56:53;8.80;;;6.28;;
15990;SDS011;8100;50.994;4.538;2023-05-07T06:59:20;8.38;;;5.90;;
15990;SDS011;8100;50.994;4.538;2023-05-07T07:01:47;7.03;;;5.85;;
15990;SDS011;8100;50.994;4.538;2023-05-07T07:04:14;9.48;;;6.10;;
15990;SDS011;8100;50.994;4.538;2023-05-07T07:06:42;7.82;;;6.38;;
15990;SDS011;8100;50.994;4.538;2023-05-07T07:09:10;9.50;;;6.10;;
15990;SDS011;8100;50.994;4.538;2023-05-07T07:11:36;8.45;;;6.22;;
15990;SDS011;8100;50.994;4.538;2023-05-07T07:14:04;7.50;;;5.82;;
15990;SDS011;8100;50.994;4.538;2023-05-07T07:16:31;8.02;;;6.03;;
15990;SDS011;8100;50.994;4.538;2023-05-07T07:18:58;11.45;;;6.05;;
15990;SDS011;8100;50.994;4.538;2023-05-07T07:21:25;7.68;;;5.15;;
15990;SDS011;8100;50.994;4.538;2023-05-07T07:23:54;9.15;;;5.55;;
15990;SDS011;8100;50.994;4.538;2023-05-07T07:26:20;8.32;;;5.45;;
15990;SDS011;8100;50.994;4.538;2023-05-07T07:28:47;11.13;;;4.82;;
15990;SDS011;8100;50.994;4.538;2023-05-07T07:31:14;8.48;;;4.88;;
15990;SDS011;8100;50.994;4.538;2023-05-07T07:33:41;9.10;;;5.10;;
15990;SDS011;8100;50.994;4.538;2023-05-07T07:36:09;10.10;;;4.95;;
15990;SDS011;8100;50.994;4.538;2023-05-07T07:38:36;7.93;;;3.97;;
15990;SDS011;8100;50.994;4.538;2023-05-07T07:41:05;7.97;;;3.72;;
15990;SDS011;8100;50.994;4.538;2023-05-07T07:43:33;8.82;;;4.00;;
15990;SDS011;8100;50.994;4.538;2023-05-07T07:46:00;9.95;;;4.10;;
15990;SDS011;8100;50.994;4.538;2023-05-07T07:48:27;5.95;;;3.45;;
15990;SDS011;8100;50.994;4.538;2023-05-07T07:50:55;5.68;;;3.67;;
15990;SDS011;8100;50.994;4.538;2023-05-07T07:53:22;5.53;;;3.53;;
15990;SDS011;8100;50.994;4.538;2023-05-07T07:55:49;6.43;;;3.40;;
15990;SDS011;8100;50.994;4.538;2023-05-07T07:58:17;6.55;;;3.25;;
15990;SDS011;8100;50.994;4.538;2023-05-07T08:00:44;6.68;;;3.63;;
15990;SDS011;8100;50.994;4.538;2023-05-07T08:03:12;6.15;;;3.72;;
15990;SDS011;8100;50.994;4.538;2023-05-07T08:05:41;7.75;;;3.83;;
15990;SDS011;8100;50.994;4.538;2023-05-07T08:08:08;8.25;;;3.78;;
15990;SDS011;8100;50.994;4.538;2023-05-07T08:10:35;8.02;;;3.75;;
15990;SDS011;8100;50.994;4.538;2023-05-07T08:13:04;8.02;;;3.65;;
15990;SDS011;8100;50.994;4.538;2023-05-07T08:15:32;5.88;;;3.38;;
15990;SDS011;8100;50.994;4.538;2023-05-07T08:18:00;9.73;;;3.72;;
15990;SDS011;8100;50.994;4.538;2023-05-07T08:20:28;5.75;;;3.30;;
15990;SDS011;8100;50.994;4.538;2023-05-07T08:22:55;7.65;;;4.07;;
15990;SDS011;8100;50.994;4.538;2023-05-07T08:25:22;5.05;;;3.17;;
15990;SDS011;8100;50.994;4.538;2023-05-07T08:27:49;6.82;;;3.90;;
15990;SDS011;8100;50.994;4.538;2023-05-07T08:30:16;5.65;;;3.80;;
15990;SDS011;8100;50.994;4.538;2023-05-07T08:32:44;7.28;;;3.92;;
15990;SDS011;8100;50.994;4.538;2023-05-07T08:35:11;7.03;;;3.88;;
15990;SDS011;8100;50.994;4.538;2023-05-07T08:37:38;6.00;;;3.70;;
15990;SDS011;8100;50.994;4.538;2023-05-07T08:40:05;7.63;;;4.05;;
15990;SDS011;8100;50.994;4.538;2023-05-07T08:42:35;7.75;;;3.67;;
15990;SDS011;8100;50.994;4.538;2023-05-07T08:45:03;6.63;;;3.97;;
15990;SDS011;8100;50.994;4.538;2023-05-07T08:47:38;7.60;;;4.30;;
15990;SDS011;8100;50.994;4.538;2023-05-07T08:50:11;8.60;;;4.22;;
15990;SDS011;8100;50.994;4.538;2023-05-07T08:52:38;7.25;;;4.10;;
15990;SDS011;8100;50.994;4.538;2023-05-07T08:55:06;9.00;;;4.68;;
15990;SDS011;8100;50.994;4.538;2023-05-07T08:57:34;9.05;;;3.92;;
15990;SDS011;8100;50.994;4.538;2023-05-07T09:00:01;7.20;;;4.18;;
15990;SDS011;8100;50.994;4.538;2023-05-07T09:02:29;7.18;;;3.92;;
15990;SDS011;8100;50.994;4.538;2023-05-07T09:04:56;7.57;;;4.10;;
15990;SDS011;8100;50.994;4.538;2023-05-07T09:07:24;6.82;;;4.13;;
15990;SDS011;8100;50.994;4.538;2023-05-07T09:09:52;8.02;;;4.03;;
15990;SDS011;8100;50.994;4.538;2023-05-07T09:12:20;7.35;;;3.58;;
15990;SDS011;8100;50.994;4.538;2023-05-07T09:14:47;6.22;;;4.00;;
15990;SDS011;8100;50.994;4.538;2023-05-07T09:17:15;6.25;;;3.80;;
15990;SDS011;8100;50.994;4.538;2023-05-07T09:19:43;7.07;;;3.97;;
15990;SDS011;8100;50.994;4.538;2023-05-07T09:22:10;9.00;;;3.97;;
15990;SDS011;8100;50.994;4.538;2023-05-07T09:24:39;9.48;;;4.13;;
15990;SDS011;8100;50.994;4.538;2023-05-07T09:27:06;6.55;;;3.70;;
15990;SDS011;8100;50.994;4.538;2023-05-07T09:29:58;7.15;;;3.80;;
15990;SDS011;8100;50.994;4.538;2023-05-07T09:32:46;7.15;;;3.97;;
15990;SDS011;8100;50.994;4.538;2023-05-07T09:35:33;6.38;;;3.72;;
15990;SDS011;8100;50.994;4.538;2023-05-07T09:38:20;9.07;;;3.95;;
15990;SDS011;8100;50.994;4.538;2023-05-07T09:41:10;5.60;;;3.35;;
15990;SDS011;8100;50.994;4.538;2023-05-07T09:43:58;7.53;;;3.70;;
15990;SDS011;8100;50.994;4.538;2023-05-07T09:46:47;8.00;;;3.90;;
15990;SDS011;8100;50.994;4.538;2023-05-07T09:49:41;6.32;;;3.67;;
15990;SDS011;8100;50.994;4.538;2023-05-07T09:52:34;5.82;;;3.90;;
15990;SDS011;8100;50.994;4.538;2023-05-07T09:55:22;7.20;;;3.65;;
15990;SDS011;8100;50.994;4.538;2023-05-07T09:58:11;7.22;;;3.78;;
15990;SDS011;8100;50.994;4.538;2023-05-07T10:01:01;4.68;;;3.25;;
15990;SDS011;8100;50.994;4.538;2023-05-07T10:03:50;6.25;;;3.58;;
15990;SDS011;8100;50.994;4.538;2023-05-07T10:06:38;8.02;;;3.40;;
15990;SDS011;8100;50.994;4.538;2023-05-07T10:09:27;6.97;;;4.00;;
15990;SDS011;8100;50.994;4.538;2023-05-07T10:12:15;5.38;;;3.50;;
15990;SDS011;8100;50.994;4.538;2023-05-07T10:15:05;6.55;;;3.70;;
15990;SDS011;8100;50.994;4.538;2023-05-07T10:17:54;7.95;;;3.38;;
15990;SDS011;8100;50.994;4.538;2023-05-07T10:20:22;6.38;;;3.47;;
15990;SDS011;8100;50.994;4.538;2023-05-07T10:22:50;6.70;;;3.50;;
15990;SDS011;8100;50.994;4.538;2023-05-07T10:25:21;7.60;;;3.47;;
15990;SDS011;8100;50.994;4.538;2023-05-07T10:28:07;5.97;;;2.95;;
15990;SDS011;8100;50.994;4.538;2023-05-07T10:30:40;6.95;;;2.83;;
15990;SDS011;8100;50.994;4.538;2023-05-07T10:33:19;5.50;;;2.92;;
15990;SDS011;8100;50.994;4.538;2023-05-07T10:35:49;5.05;;;2.55;;
15990;SDS011;8100;50.994;4.538;2023-05-07T10:38:26;5.53;;;2.95;;
15990;SDS011;8100;50.994;4.538;2023-05-07T10:41:12;4.32;;;2.67;;
15990;SDS011;8100;50.994;4.538;2023-05-07T10:44:00;6.40;;;2.83;;
15990;SDS011;8100;50.994;4.538;2023-05-07T10:46:51;5.13;;;2.58;;
15990;SDS011;8100;50.994;4.538;2023-05-07T10:53:20;28.83;;;10.25;;
15990;SDS011;8100;50.994;4.538;2023-05-07T10:56:24;16.95;;;6.15;;
15990;SDS011;8100;50.994;4.538;2023-05-07T10:59:31;6.15;;;3.28;;
15990;SDS011;8100;50.994;4.538;2023-05-07T11:05:45;5.68;;;2.90;;
15990;SDS011;8100;50.994;4.538;2023-05-07T11:11:44;3.67;;;2.33;;
15990;SDS011;8100;50.994;4.538;2023-05-07T11:14:45;2.85;;;2.08;;
15990;SDS011;8100;50.994;4.538;2023-05-07T11:17:32;5.22;;;2.20;;
15990;SDS011;8100;50.994;4.538;2023-05-07T11:20:20;5.72;;;2.03;;
15990;SDS011;8100;50.994;4.538;2023-05-07T11:26:46;6.03;;;2.22;;
15990;SDS011;8100;50.994;4.538;2023-05-07T11:29:35;4.85;;;2.00;;
15990;SDS011;8100;50.994;4.538;2023-05-07T11:32:22;5.03;;;2.03;;
15990;SDS011;8100;50.994;4.538;2023-05-07T11:35:10;4.25;;;1.90;;
15990;SDS011;8100;50.994;4.538;2023-05-07T11:37:58;2.70;;;1.95;;
15990;SDS011;8100;50.994;4.538;2023-05-07T11:40:51;4.80;;;1.90;;
15990;SDS011;8100;50.994;4.538;2023-05-07T11:43:53;4.50;;;2.10;;
15990;SDS011;8100;50.994;4.538;2023-05-07T11:46:42;3.22;;;1.98;;
15990;SDS011;8100;50.994;4.538;2023-05-07T11:49:30;4.00;;;1.80;;
15990;SDS011;8100;50.994;4.538;2023-05-07T11:52:18;3.10;;;2.10;;
15990;SDS011;8100;50.994;4.538;2023-05-07T11:55:07;2.90;;;1.88;;
15990;SDS011;8100;50.994;4.538;2023-05-07T11:57:56;2.65;;;1.73;;
15990;SDS011;8100;50.994;4.538;2023-05-07T12:00:47;4.20;;;1.70;;
15990;SDS011;8100;50.994;4.538;2023-05-07T12:03:36;4.45;;;1.83;;
15990;SDS011;8100;50.994;4.538;2023-05-07T12:06:23;3.70;;;1.63;;
15990;SDS011;8100;50.994;4.538;2023-05-07T12:09:11;5.00;;;1.98;;
15990;SDS011;8100;50.994;4.538;2023-05-07T12:12:02;3.58;;;1.98;;
15990;SDS011;8100;50.994;4.538;2023-05-07T12:14:51;5.00;;;1.80;;
15990;SDS011;8100;50.994;4.538;2023-05-07T12:17:39;8.25;;;2.33;;
15990;SDS011;8100;50.994;4.538;2023-05-07T12:20:27;2.95;;;1.90;;
15990;SDS011;8100;50.994;4.538;2023-05-07T12:23:14;2.70;;;1.88;;
15990;SDS011;8100;50.994;4.538;2023-05-07T12:26:02;3.75;;;2.03;;
15990;SDS011;8100;50.994;4.538;2023-05-07T12:28:50;3.80;;;1.90;;
15990;SDS011;8100;50.994;4.538;2023-05-07T12:31:41;4.20;;;2.10;;
15990;SDS011;8100;50.994;4.538;2023-05-07T12:34:29;4.45;;;1.80;;
15990;SDS011;8100;50.994;4.538;2023-05-07T12:37:22;5.18;;;2.20;;
15990;SDS011;8100;50.994;4.538;2023-05-07T12:40:10;6.20;;;2.20;;
15990;SDS011;8100;50.994;4.538;2023-05-07T12:42:58;5.18;;;2.10;;
15990;SDS011;8100;50.994;4.538;2023-05-07T12:45:46;4.53;;;1.88;;
15990;SDS011;8100;50.994;4.538;2023-05-07T12:48:37;4.40;;;1.92;;
15990;SDS011;8100;50.994;4.538;2023-05-07T12:51:25;4.05;;;1.42;;
15990;SDS011;8100;50.994;4.538;2023-05-07T12:54:27;5.38;;;1.90;;
15990;SDS011;8100;50.994;4.538;2023-05-07T12:57:15;3.00;;;1.75;;
15990;SDS011;8100;50.994;4.538;2023-05-07T13:00:07;4.18;;;1.95;;
15990;SDS011;8100;50.994;4.538;2023-05-07T13:02:37;6.57;;;1.70;;
15990;SDS011;8100;50.994;4.538;2023-05-07T13:05:06;4.03;;;1.75;;
15990;SDS011;8100;50.994;4.538;2023-05-07T13:07:34;3.13;;;1.60;;
15990;SDS011;8100;50.994;4.538;2023-05-07T13:10:02;3.80;;;1.90;;
15990;SDS011;8100;50.994;4.538;2023-05-07T13:12:29;4.30;;;2.03;;
15990;SDS011;8100;50.994;4.538;2023-05-07T13:14:56;4.10;;;1.80;;
15990;SDS011;8100;50.994;4.538;2023-05-07T13:17:24;3.80;;;1.58;;
15990;SDS011;8100;50.994;4.538;2023-05-07T13:19:51;3.22;;;1.80;;
15990;SDS011;8100;50.994;4.538;2023-05-07T13:22:19;4.93;;;1.95;;
15990;SDS011;8100;50.994;4.538;2023-05-07T13:24:46;3.53;;;1.77;;
15990;SDS011;8100;50.994;4.538;2023-05-07T13:27:13;3.15;;;1.70;;
15990;SDS011;8100;50.994;4.538;2023-05-07T13:29:40;3.80;;;1.75;;
15990;SDS011;8100;50.994;4.538;2023-05-07T13:32:07;3.72;;;1.88;;
15990;SDS011;8100;50.994;4.538;2023-05-07T13:34:34;4.18;;;1.88;;
15990;SDS011;8100;50.994;4.538;2023-05-07T13:37:02;4.57;;;1.90;;
15990;SDS011;8100;50.994;4.538;2023-05-07T13:39:33;2.85;;;1.90;;
15990;SDS011;8100;50.994;4.538;2023-05-07T13:42:00;5.57;;;1.90;;
15990;SDS011;8100;50.994;4.538;2023-05-07T13:44:46;4.63;;;2.03;;
15990;SDS011;8100;50.994;4.538;2023-05-07T13:47:33;4.28;;;2.08;;
15990;SDS011;8100;50.994;4.538;2023-05-07T13:50:20;5.15;;;1.80;;
15990;SDS011;8100;50.994;4.538;2023-05-07T13:53:08;4.07;;;2.05;;
15990;SDS011;8100;50.994;4.538;2023-05-07T13:55:57;4.35;;;2.17;;
15990;SDS011;8100;50.994;4.538;2023-05-07T13:58:44;4.85;;;1.70;;
15990;SDS011;8100;50.994;4.538;2023-05-07T14:01:31;3.22;;;2.10;;
15990;SDS011;8100;50.994;4.538;2023-05-07T14:04:19;4.82;;;2.13;;
15990;SDS011;8100;50.994;4.538;2023-05-07T14:07:06;3.40;;;1.90;;
15990;SDS011;8100;50.994;4.538;2023-05-07T14:09:53;4.40;;;2.20;;
15990;SDS011;8100;50.994;4.538;2023-05-07T14:12:43;3.92;;;2.10;;
15990;SDS011;8100;50.994;4.538;2023-05-07T14:15:31;3.53;;;2.20;;
15990;SDS011;8100;50.994;4.538;2023-05-07T14:18:18;3.67;;;2.15;;
15990;SDS011;8100;50.994;4.538;2023-05-07T14:21:05;4.25;;;2.42;;
15990;SDS011;8100;50.994;4.538;2023-05-07T14:23:55;3.97;;;2.22;;
15990;SDS011;8100;50.994;4.538;2023-05-07T14:26:42;5.72;;;2.67;;
15990;SDS011;8100;50.994;4.538;2023-05-07T14:29:32;4.15;;;2.33;;
15990;SDS011;8100;50.994;4.538;2023-05-07T14:32:20;3.13;;;2.30;;
15990;SDS011;8100;50.994;4.538;2023-05-07T14:35:08;4.65;;;2.35;;
15990;SDS011;8100;50.994;4.538;2023-05-07T14:37:55;3.65;;;2.28;;
15990;SDS011;8100;50.994;4.538;2023-05-07T14:40:42;3.85;;;1.92;;
15990;SDS011;8100;50.994;4.538;2023-05-07T14:43:31;2.28;;;1.92;;
15990;SDS011;8100;50.994;4.538;2023-05-07T14:46:26;4.28;;;2.05;;
15990;SDS011;8100;50.994;4.538;2023-05-07T14:49:13;3.83;;;1.88;;
15990;SDS011;8100;50.994;4.538;2023-05-07T14:52:02;2.60;;;1.60;;
15990;SDS011;8100;50.994;4.538;2023-05-07T14:54:51;2.95;;;1.80;;
15990;SDS011;8100;50.994;4.538;2023-05-07T14:57:38;2.78;;;1.90;;
15990;SDS011;8100;50.994;4.538;2023-05-07T15:00:26;4.65;;;1.85;;
15990;SDS011;8100;50.994;4.538;2023-05-07T15:03:14;2.80;;;1.75;;
15990;SDS011;8100;50.994;4.538;2023-05-07T15:06:02;4.55;;;1.90;;
15990;SDS011;8100;50.994;4.538;2023-05-07T15:08:50;3.05;;;2.03;;
15990;SDS011;8100;50.994;4.538;2023-05-07T15:11:37;3.42;;;2.03;;
15990;SDS011;8100;50.994;4.538;2023-05-07T15:14:25;2.85;;;1.95;;
15990;SDS011;8100;50.994;4.538;2023-05-07T15:17:12;3.58;;;2.03;;
15990;SDS011;8100;50.994;4.538;2023-05-07T15:20:01;4.35;;;2.10;;
15990;SDS011;8100;50.994;4.538;2023-05-07T15:22:50;2.90;;;1.98;;
15990;SDS011;8100;50.994;4.538;2023-05-07T15:25:37;4.40;;;2.13;;
15990;SDS011;8100;50.994;4.538;2023-05-07T15:28:24;3.10;;;2.00;;
15990;SDS011;8100;50.994;4.538;2023-05-07T15:31:13;2.88;;;2.00;;
15990;SDS011;8100;50.994;4.538;2023-05-07T15:34:01;3.72;;;2.30;;
15990;SDS011;8100;50.994;4.538;2023-05-07T15:36:50;3.15;;;2.30;;
15990;SDS011;8100;50.994;4.538;2023-05-07T15:39:37;3.63;;;2.28;;
15990;SDS011;8100;50.994;4.538;2023-05-07T15:42:25;3.03;;;2.60;;
15990;SDS011;8100;50.994;4.538;2023-05-07T15:45:12;4.72;;;2.50;;
15990;SDS011;8100;50.994;4.538;2023-05-07T15:47:59;3.28;;;2.50;;
15990;SDS011;8100;50.994;4.538;2023-05-07T15:50:47;4.00;;;2.50;;
15990;SDS011;8100;50.994;4.538;2023-05-07T15:53:36;3.40;;;2.30;;
15990;SDS011;8100;50.994;4.538;2023-05-07T15:56:24;3.13;;;2.10;;